createdAt,value
2023-02-01T00:00:27.198Z,100851.38
2023-02-01T00:03:30.179Z,100858.47
2023-02-01T00:06:33.135Z,100858.47
2023-02-01T00:09:35.967Z,100855.81
2023-02-01T00:12:40.308Z,100847.84
2023-02-01T00:15:43.171Z,100852.28
2023-02-01T00:18:46.619Z,100845.25
2023-02-01T00:21:49.846Z,100847.13
2023-02-01T00:24:52.730Z,100856.91
2023-02-01T00:27:58.421Z,100855.97
2023-02-01T00:31:02.021Z,100854.25
2023-02-01T00:34:05.282Z,100865.69
2023-02-01T00:37:08.238Z,100859.47
2023-02-01T00:40:12.369Z,100862.22
2023-02-01T00:43:16.525Z,100846.25
2023-02-01T00:46:21.215Z,100858.78
2023-02-01T00:49:24.067Z,100860.66
2023-02-01T00:52:26.962Z,100857.19
2023-02-01T00:55:29.854Z,100851.94
2023-02-01T00:58:34.759Z,100849.28
2023-02-01T01:01:37.629Z,100839.47
2023-02-01T01:04:40.479Z,100855.31
2023-02-01T01:07:43.491Z,100857.97
2023-02-01T01:10:46.322Z,100845.47
2023-02-01T01:13:52.042Z,100837.56
2023-02-01T01:16:55.526Z,100833.16
2023-02-01T01:19:59.921Z,100832.28
2023-02-01T01:23:02.999Z,100843.81
2023-02-01T01:26:08.221Z,100838.56
2023-02-01T01:29:12.658Z,100843.81
2023-02-01T01:32:15.537Z,100837.59
2023-02-01T01:35:18.555Z,100827.03
2023-02-01T01:38:21.756Z,100832.44
2023-02-01T01:41:26.666Z,100834.16
2023-02-01T01:45:04.711Z,100830.56
2023-02-01T01:48:15.455Z,100815.53
2023-02-01T01:51:21.596Z,100827.91
2023-02-01T01:54:29.486Z,100812.88
2023-02-01T01:57:36.877Z,100823.50
2023-02-01T02:00:41.925Z,100827.13
2023-02-01T02:03:48.725Z,100825.38
2023-02-01T02:06:56.557Z,100829.00
2023-02-01T02:10:01.245Z,100821.09
2023-02-01T02:13:04.726Z,100833.44
2023-02-01T02:16:40.972Z,100836.97
2023-02-01T02:20:21.103Z,100833.44
2023-02-01T02:24:11.536Z,100823.69
2023-02-01T02:27:26.474Z,100824.53
2023-02-01T02:30:57.952Z,100813.03
2023-02-01T02:34:12.051Z,100811.25
2023-02-01T02:37:26.247Z,100809.41
2023-02-01T02:40:35.591Z,100803.19
2023-02-01T02:44:03.715Z,100798.78
2023-02-01T02:47:28.660Z,100809.41
2023-02-01T02:50:57.265Z,100792.59
2023-02-01T02:54:26.011Z,100797.94
2023-02-01T02:57:50.977Z,100797.06
2023-02-01T03:01:13.103Z,100795.31
2023-02-01T03:04:18.630Z,100798.84
2023-02-01T03:07:55.032Z,100792.66
2023-02-01T03:11:02.290Z,100784.69
2023-02-01T03:14:07.496Z,100788.22
2023-02-01T03:17:15.567Z,100775.78
2023-02-01T03:20:21.918Z,100775.78
2023-02-01T03:23:30.971Z,100766.84
2023-02-01T03:26:39.223Z,100765.13
2023-02-01T03:29:50.311Z,100767.00
2023-02-01T03:33:02.094Z,100763.38
2023-02-01T03:36:17.092Z,100753.63
2023-02-01T03:39:30.210Z,100743.84
2023-02-01T03:42:39.411Z,100739.38
2023-02-01T03:45:48.406Z,100730.44
2023-02-01T03:48:53.514Z,100727.69
2023-02-01T03:51:59.681Z,100730.22
2023-02-01T03:55:05.511Z,100724.81
2023-02-01T03:58:13.799Z,100723.91
2023-02-01T04:01:16.647Z,100728.28
2023-02-01T04:04:21.760Z,100728.28
2023-02-01T04:07:28.621Z,100729.16
2023-02-01T04:10:33.098Z,100722.13
2023-02-01T04:13:35.935Z,100731.88
2023-02-01T04:16:38.896Z,100723.91
2023-02-01T04:19:41.840Z,100724.00
2023-02-01T04:22:45.224Z,100726.66
2023-02-01T04:25:49.423Z,100723.13
2023-02-01T04:28:53.646Z,100717.84
2023-02-01T04:31:56.543Z,100709.94
2023-02-01T04:34:59.399Z,100723.25
2023-02-01T04:38:02.501Z,100728.56
2023-02-01T04:41:06.846Z,100725.03
2023-02-01T04:44:15.043Z,100711.75
2023-02-01T04:47:17.922Z,100711.75
2023-02-01T04:50:21.771Z,100718.94
2023-02-01T04:53:25.327Z,100717.22
2023-02-01T04:56:29.563Z,100711.91
2023-02-01T04:59:32.375Z,100717.31
2023-02-01T05:02:35.999Z,100713.78
2023-02-01T05:05:38.817Z,100706.72
2023-02-01T05:08:41.688Z,100705.00
2023-02-01T05:12:03.089Z,100698.81
2023-02-01T05:15:07.095Z,100697.03
2023-02-01T05:18:10.051Z,100697.91
2023-02-01T05:21:13.030Z,100704.94
2023-02-01T05:24:20.654Z,100689.84
2023-02-01T05:27:24.919Z,100705.88
2023-02-01T05:30:27.885Z,100697.03
2023-02-01T05:33:30.750Z,100689.09
2023-02-01T05:36:34.229Z,100690.91
2023-02-01T05:39:37.184Z,100700.69
2023-02-01T05:42:41.373Z,100699.75
2023-02-01T05:45:44.203Z,100697.09
2023-02-01T05:48:47.066Z,100674.97
2023-02-01T05:51:49.886Z,100692.63
2023-02-01T05:54:53.663Z,100691.72
2023-02-01T05:57:57.955Z,100688.97
2023-02-01T06:01:01.415Z,100686.31
2023-02-01T06:04:04.446Z,100687.16
2023-02-01T06:07:08.002Z,100685.44
2023-02-01T06:10:12.354Z,100680.09
2023-02-01T06:13:16.575Z,100665.97
2023-02-01T06:16:19.566Z,100668.63
2023-02-01T06:19:22.627Z,100661.47
2023-02-01T06:22:25.555Z,100669.47
2023-02-01T06:25:28.429Z,100665.97
2023-02-01T06:28:34.126Z,100657.97
2023-02-01T06:31:37.007Z,100658.81
2023-02-01T06:34:40.607Z,100665.88
2023-02-01T06:37:43.918Z,100666.75
2023-02-01T06:40:46.741Z,100678.22
2023-02-01T06:43:51.362Z,100672.91
2023-02-01T06:46:54.350Z,100665.88
2023-02-01T06:49:57.290Z,100665.88
2023-02-01T06:53:00.100Z,100668.53
2023-02-01T06:56:05.111Z,100664.16
2023-02-01T06:59:10.134Z,100666.81
2023-02-01T07:02:13.598Z,100665.09
2023-02-01T07:05:16.770Z,100664.16
2023-02-01T07:08:19.655Z,100657.13
2023-02-01T07:11:22.539Z,100665.09
2023-02-01T07:14:26.774Z,100662.44
2023-02-01T07:17:30.233Z,100674.78
2023-02-01T07:20:33.121Z,100662.34
2023-02-01T07:23:36.707Z,100658.81
2023-02-01T07:26:39.677Z,100658.81
2023-02-01T07:29:43.862Z,100657.13
2023-02-01T07:32:46.792Z,100649.13
2023-02-01T07:35:50.244Z,100651.78
2023-02-01T07:38:56.401Z,100647.34
2023-02-01T07:41:59.609Z,100643.81
2023-02-01T07:45:19.029Z,100653.50
2023-02-01T07:48:24.787Z,100655.38
2023-02-01T07:51:27.710Z,100647.34
2023-02-01T07:54:30.639Z,100645.59
2023-02-01T07:57:33.580Z,100634.97
2023-02-01T08:00:55.610Z,100634.03
2023-02-01T08:04:00.894Z,100630.50
2023-02-01T08:07:03.786Z,100624.31
2023-02-01T08:10:11.620Z,100623.44
2023-02-01T08:13:14.593Z,100613.75
2023-02-01T08:16:21.228Z,100609.28
2023-02-01T08:19:24.155Z,100611.09
2023-02-01T08:22:27.228Z,100612.81
2023-02-01T08:25:30.895Z,100616.34
2023-02-01T08:28:34.273Z,100629.63
2023-02-01T08:31:41.561Z,100625.19
2023-02-01T08:34:45.612Z,100626.88
2023-02-01T08:37:48.615Z,100633.94
2023-02-01T08:40:52.176Z,100640.97
2023-02-01T08:43:55.596Z,100626.75
2023-02-01T08:46:59.855Z,100628.47
2023-02-01T08:50:03.092Z,100624.00
2023-02-01T08:53:06.159Z,100632.00
2023-02-01T08:56:09.843Z,100616.91
2023-02-01T08:59:12.762Z,100624.88
2023-02-01T09:02:18.489Z,100634.56
2023-02-01T09:05:23.334Z,100634.56
2023-02-01T09:08:26.325Z,100638.09
2023-02-01T09:11:29.179Z,100652.28
2023-02-01T09:14:32.298Z,100646.94
2023-02-01T09:17:37.355Z,100651.31
2023-02-01T09:20:40.223Z,100661.91
2023-02-01T09:23:43.128Z,100653.91
2023-02-01T09:26:46.592Z,100656.59
2023-02-01T09:29:53.264Z,100677.78
2023-02-01T09:32:57.538Z,100661.81
2023-02-01T09:36:01.442Z,100679.53
2023-02-01T09:39:04.585Z,100689.22
2023-02-01T09:42:23.023Z,100692.84
2023-02-01T09:45:30.318Z,100691.09
2023-02-01T09:48:40.467Z,100688.44
2023-02-01T09:51:46.348Z,100698.16
2023-02-01T09:54:58.372Z,100706.16
2023-02-01T09:58:04.557Z,100695.41
2023-02-01T10:01:17.199Z,100695.41
2023-02-01T10:04:21.834Z,100696.28
2023-02-01T10:07:34.897Z,100695.31
2023-02-01T10:10:46.002Z,100703.41
2023-02-01T10:13:57.823Z,100693.63
2023-02-01T10:17:12.990Z,100687.44
2023-02-01T10:20:27.959Z,100691.88
2023-02-01T10:24:06.020Z,100690.19
2023-02-01T10:27:22.417Z,100700.81
2023-02-01T10:30:27.910Z,100694.63
2023-02-01T10:33:35.942Z,100691.97
2023-02-01T10:36:43.924Z,100695.50
2023-02-01T10:39:48.515Z,100684.84
2023-02-01T10:42:53.415Z,100686.56
2023-02-01T10:45:56.389Z,100682.97
2023-02-01T10:49:02.213Z,100690.00
2023-02-01T10:52:15.158Z,100694.41
2023-02-01T10:55:35.303Z,100684.69
2023-02-01T10:58:44.952Z,100682.03
2023-02-01T11:01:49.628Z,100682.03
2023-02-01T11:04:52.662Z,100673.16
2023-02-01T11:07:57.896Z,100678.44
2023-02-01T11:11:03.259Z,100673.16
2023-02-01T11:14:20.101Z,100680.22
2023-02-01T11:17:34.611Z,100661.59
2023-02-01T11:20:41.447Z,100657.19
2023-02-01T11:23:47.382Z,100658.94
2023-02-01T11:26:50.459Z,100653.59
2023-02-01T11:29:57.240Z,100660.81
2023-02-01T11:33:01.849Z,100653.69
2023-02-01T11:36:10.642Z,100651.03
2023-02-01T11:39:26.698Z,100643.88
2023-02-01T11:42:30.689Z,100634.19
2023-02-01T11:45:34.889Z,100638.66
2023-02-01T11:48:37.881Z,100634.19
2023-02-01T11:51:53.211Z,100642.09
2023-02-01T11:55:15.132Z,100634.09
2023-02-01T11:58:31.302Z,100635.84
2023-02-01T12:02:03.440Z,100634.03
2023-02-01T12:05:24.407Z,100621.50
2023-02-01T12:09:05.039Z,100627.69
2023-02-01T12:12:20.188Z,100628.47
2023-02-01T12:15:36.607Z,100625.81
2023-02-01T12:19:11.768Z,100621.34
2023-02-01T12:22:29.390Z,100624.03
2023-02-01T12:25:44.791Z,100625.81
2023-02-01T12:29:10.798Z,100646.31
2023-02-01T12:32:27.365Z,100641.97
2023-02-01T12:35:43.968Z,100650.88
2023-02-01T12:38:59.567Z,100642.88
2023-02-01T12:42:11.175Z,100638.50
2023-02-01T12:45:24.924Z,100634.91
2023-02-01T12:48:33.520Z,100626.03
2023-02-01T12:51:39.570Z,100604.69
2023-02-01T12:54:48.067Z,100594.03
2023-02-01T12:57:55.133Z,100596.72
2023-02-01T13:01:02.559Z,100602.97
2023-02-01T13:04:13.046Z,100592.31
2023-02-01T13:07:21.547Z,100590.59
2023-02-01T13:10:32.754Z,100589.66
2023-02-01T13:13:43.538Z,100595.94
2023-02-01T13:16:50.883Z,100593.25
2023-02-01T13:19:58.434Z,100603.81
2023-02-01T13:23:05.524Z,100592.31
2023-02-01T13:26:08.755Z,100599.38
2023-02-01T13:29:13.513Z,100596.72
2023-02-01T13:33:51.075Z,100590.44
2023-02-01T13:36:16.666Z,100570.94
2023-02-01T13:39:51.269Z,100569.13
2023-02-01T13:42:57.498Z,100563.81
2023-02-01T13:46:14.325Z,100562.00
2023-02-01T13:49:24.222Z,100562.94
2023-02-01T13:52:38.868Z,100553.16
2023-02-01T13:55:43.933Z,100547.84
2023-02-01T13:58:48.795Z,100545.19
2023-02-01T14:01:51.777Z,100541.59
2023-02-01T14:04:57.508Z,100533.59
2023-02-01T14:08:16.481Z,100527.31
2023-02-01T14:11:38.216Z,100530.00
2023-02-01T14:14:43.130Z,100533.53
2023-02-01T14:17:46.046Z,100521.06
2023-02-01T14:20:52.153Z,100518.41
2023-02-01T14:24:02.183Z,100509.56
2023-02-01T14:27:20.041Z,100502.53
2023-02-01T14:30:23.224Z,100500.81
2023-02-01T14:33:28.991Z,100499.88
2023-02-01T14:36:46.105Z,100494.59
2023-02-01T14:39:56.844Z,100482.25
2023-02-01T14:42:59.707Z,100476.84
2023-02-01T14:46:03.139Z,100470.59
2023-02-01T14:49:08.261Z,100490.16
2023-02-01T14:52:18.089Z,100500.72
2023-02-01T14:55:27.063Z,100504.25
2023-02-01T14:58:39.243Z,100489.13
2023-02-01T15:01:52.088Z,100480.19
2023-02-01T15:04:57.685Z,100471.44
2023-02-01T15:08:13.968Z,100493.59
2023-02-01T15:11:18.070Z,100504.31
2023-02-01T15:14:21.025Z,100486.63
2023-02-01T15:17:34.658Z,100492.81
2023-02-01T15:20:37.549Z,100489.28
2023-02-01T15:23:42.627Z,100483.97
2023-02-01T15:26:46.317Z,100475.97
2023-02-01T15:29:49.535Z,100466.28
2023-02-01T15:32:53.106Z,100465.34
2023-02-01T15:35:57.410Z,100467.13
2023-02-01T15:39:21.101Z,100458.22
2023-02-01T15:42:24.214Z,100465.28
2023-02-01T15:45:30.134Z,100469.72
2023-02-01T15:48:39.594Z,100471.44
2023-02-01T15:51:48.109Z,100468.78
2023-02-01T15:54:55.596Z,100462.50
2023-02-01T15:57:58.615Z,100458.13
2023-02-01T16:01:05.525Z,100453.75
2023-02-01T16:04:18.907Z,100457.34
2023-02-01T16:07:29.431Z,100454.69
2023-02-01T16:10:40.366Z,100446.69
2023-02-01T16:13:43.315Z,100460.00
2023-02-01T16:16:46.598Z,100452.78
2023-02-01T16:19:49.606Z,100453.75
2023-02-01T16:22:52.510Z,100458.22
2023-02-01T16:25:56.762Z,100460.88
2023-02-01T16:28:59.849Z,100462.66
2023-02-01T16:32:03.102Z,100462.66
2023-02-01T16:35:07.175Z,100466.28
2023-02-01T16:38:14.264Z,100471.63
2023-02-01T16:41:20.420Z,100469.88
2023-02-01T16:44:23.333Z,100468.16
2023-02-01T16:47:26.258Z,100473.50
2023-02-01T16:50:29.570Z,100470.84
2023-02-01T16:53:38.926Z,100487.63
2023-02-01T16:56:53.202Z,100494.69
2023-02-01T16:59:56.164Z,100498.22
2023-02-01T17:02:58.981Z,100492.03
2023-02-01T17:06:01.986Z,100495.63
2023-02-01T17:09:05.456Z,100511.59
2023-02-01T17:12:21.506Z,100511.53
2023-02-01T17:15:25.171Z,100522.25
2023-02-01T17:18:31.663Z,100518.75
2023-02-01T17:21:42.782Z,100532.97
2023-02-01T17:24:49.029Z,100530.31
2023-02-01T17:27:53.360Z,100540.09
2023-02-01T17:30:56.469Z,100545.34
2023-02-01T17:33:59.330Z,100555.03
2023-02-01T17:37:02.176Z,100552.38
2023-02-01T17:40:05.657Z,100558.66
2023-02-01T17:43:15.031Z,100569.31
2023-02-01T17:46:21.106Z,100565.78
2023-02-01T17:49:24.143Z,100561.38
2023-02-01T17:52:27.056Z,100570.31
2023-02-01T17:55:30.385Z,100573.91
2023-02-01T17:58:34.783Z,100576.66
2023-02-01T18:01:38.155Z,100573.06
2023-02-01T18:04:41.002Z,100566.97
2023-02-01T18:07:43.798Z,100575.78
2023-02-01T18:10:48.550Z,100565.22
2023-02-01T18:13:54.199Z,100568.75
2023-02-01T18:16:57.149Z,100558.13
2023-02-01T18:20:00.123Z,100557.16
2023-02-01T18:23:03.606Z,100559.91
2023-02-01T18:26:06.663Z,100569.63
2023-02-01T18:29:11.087Z,100560.84
2023-02-01T18:32:13.967Z,100569.69
2023-02-01T18:35:19.787Z,100570.56
2023-02-01T18:38:22.712Z,100562.66
2023-02-01T18:41:26.516Z,100560.00
2023-02-01T18:44:30.789Z,100563.59
2023-02-01T18:47:33.595Z,100560.06
2023-02-01T18:50:38.764Z,100559.22
2023-02-01T18:53:41.791Z,100562.72
2023-02-01T18:56:44.773Z,100560.06
2023-02-01T18:59:49.036Z,100565.38
2023-02-01T19:02:52.080Z,100581.28
2023-02-01T19:05:57.267Z,100580.41
2023-02-01T19:09:00.197Z,100573.34
2023-02-01T19:12:03.555Z,100579.56
2023-02-01T19:15:12.814Z,100575.19
2023-02-01T19:18:20.180Z,100571.66
2023-02-01T19:21:23.113Z,100581.44
2023-02-01T19:24:27.985Z,100575.22
2023-02-01T19:27:30.954Z,100568.22
2023-02-01T19:30:35.217Z,100577.91
2023-02-01T19:33:38.158Z,100569.91
2023-02-01T19:36:42.752Z,100577.91
2023-02-01T19:39:45.670Z,100569.91
2023-02-01T19:42:50.179Z,100576.09
2023-02-01T19:45:54.642Z,100577.91
2023-02-01T19:48:57.683Z,100580.56
2023-02-01T19:52:00.705Z,100591.19
2023-02-01T19:55:03.599Z,100591.19
2023-02-01T19:58:07.011Z,100589.50
2023-02-01T20:01:11.574Z,100598.34
2023-02-01T20:04:15.098Z,100605.47
2023-02-01T20:07:17.999Z,100587.75
2023-02-01T20:10:20.838Z,100593.03
2023-02-01T20:13:23.707Z,100583.31
2023-02-01T20:16:28.222Z,100583.31
2023-02-01T20:19:31.251Z,100582.44
2023-02-01T20:22:34.159Z,100589.50
2023-02-01T20:25:38.366Z,100589.50
2023-02-01T20:28:41.756Z,100589.50
2023-02-01T20:31:47.148Z,100591.19
2023-02-01T20:34:53.223Z,100599.28
2023-02-01T20:37:57.067Z,100600.13
2023-02-01T20:41:04.425Z,100598.41
2023-02-01T20:44:07.861Z,100599.28
2023-02-01T20:47:12.123Z,100599.28
2023-02-01T20:50:14.988Z,100611.72
2023-02-01T20:53:26.684Z,100611.72
2023-02-01T20:56:30.106Z,100609.03
2023-02-01T20:59:33.090Z,100609.03
2023-02-01T21:02:37.384Z,100601.00
2023-02-01T21:05:43.086Z,100600.13
2023-02-01T21:08:45.966Z,100608.13
2023-02-01T21:11:48.832Z,100607.16
2023-02-01T21:14:51.739Z,100603.66
2023-02-01T21:17:55.958Z,100587.75
2023-02-01T21:21:04.649Z,100593.03
2023-02-01T21:24:08.550Z,100589.50
2023-02-01T21:27:11.468Z,100589.50
2023-02-01T21:30:15.194Z,100591.19
2023-02-01T21:33:19.458Z,100605.47
2023-02-01T21:36:22.378Z,100598.41
2023-02-01T21:39:25.350Z,100609.00
2023-02-01T21:42:28.586Z,100601.00
2023-02-01T21:45:31.512Z,100608.13
2023-02-01T21:49:04.418Z,100596.53
2023-02-01T21:51:58.747Z,100577.84
2023-02-01T21:55:01.704Z,100590.38
2023-02-01T21:58:12.500Z,100590.28
2023-02-01T22:01:15.480Z,100599.19
2023-02-01T22:04:19.646Z,100601.00
2023-02-01T22:07:22.426Z,100596.53
2023-02-01T22:10:25.280Z,100595.69
2023-02-01T22:13:28.110Z,100594.81
2023-02-01T22:16:31.745Z,100588.53
2023-02-01T22:19:36.230Z,100587.72
2023-02-01T22:22:39.054Z,100585.03
2023-02-01T22:25:41.918Z,100585.03
2023-02-01T22:28:45.021Z,100582.28
2023-02-01T22:31:48.368Z,100566.34
2023-02-01T22:34:52.671Z,100577.84
2023-02-01T22:37:55.498Z,100573.34
2023-02-01T22:40:59.761Z,100570.69
2023-02-01T22:44:04.830Z,100566.34
2023-02-01T22:47:08.292Z,100562.81
2023-02-01T22:50:12.956Z,100555.69
2023-02-01T22:53:15.853Z,100550.38
2023-02-01T22:56:18.807Z,100547.69
2023-02-01T22:59:21.866Z,100553.03
2023-02-01T23:02:24.847Z,100562.81
2023-02-01T23:05:29.248Z,100547.63
2023-02-01T23:08:33.577Z,100553.94
2023-02-01T23:11:36.466Z,100545.03
2023-02-01T23:14:59.398Z,100549.50
2023-02-01T23:18:02.619Z,100529.94
2023-02-01T23:21:09.514Z,100533.44
2023-02-01T23:24:12.446Z,100530.78
2023-02-01T23:27:15.298Z,100529.94
2023-02-01T23:30:18.319Z,100518.44
2023-02-01T23:33:23.681Z,100526.31
2023-02-01T23:36:29.373Z,100527.19
2023-02-01T23:39:33.162Z,100523.75
2023-02-01T23:42:36.234Z,100514.81
2023-02-01T23:45:39.102Z,100481.19
2023-02-01T23:48:42.130Z,100490.09
2023-02-01T23:51:47.576Z,100485.63
2023-02-01T23:54:50.430Z,100479.38
2023-02-01T23:57:53.258Z,100465.22
